ADDS METAR Data INFO
IDs: Format: Raw Decoded Include TAF

Data at: 0301 UTC 21 Jan 2018

KDTN 210253Z 14009KT 10SM BKN007 OVC015 16/15 A3005 RMK AO2 CIG 005V011 SLP176 T01610150 50007
KDTN 210240Z 14010KT 10SM SCT007 OVC015 16/15 A3005 RMK AO2 T01610150
KDTN 210227Z 14011KT 10SM FEW007 BKN013 OVC019 16/15 A3005 RMK AO2 T01610150
KDTN 210153Z 14009KT 10SM OVC014 17/15 A3006 RMK AO2 SLP177 T01720150
KDTN 210053Z 17008KT 10SM OVC025 18/16 A3006 RMK AO2 SLP176 T01780156
KDTN 210030Z 16009KT 10SM BKN026 OVC034 19/14 A3005 RMK AO2 T01890144
KDTN 202353Z 16009KT 10SM FEW025 BKN033 OVC042 19/14 A3003 RMK AO2 SLP168 T01890144 10200 20161 53002
KDTN 202351Z 17007KT 10SM BKN030 OVC036 19/14 A3004 RMK AO2
KDTN 202253Z 17012KT 10SM BKN027 19/14 A3002 RMK AO2 SLP165 T01940144
KDTN 202229Z 16011G19KT 10SM SCT029 BKN038 20/14 A3002 RMK AO2 T02000144
KDTN 202220Z 14009KT 10SM BKN029 OVC038 19/14 A3003 RMK AO2 T01940144
KDTN 202153Z 14008KT 10SM FEW025 OVC033 18/14 A3003 RMK AO2 SLP167 T01830144
KDTN 202143Z 15009KT 10SM FEW025 OVC033 19/14 A3003 RMK AO2 T01890144
KDTN 202053Z 14008KT 10SM OVC023 18/14 A3003 RMK AO2 SLP168 T01830139 56025
KDTN 201953Z 17009G16KT 10SM OVC019 18/14 A3005 RMK AO2 SLP174 T01780139
KDTN 201853Z 17009KT 10SM BKN016 OVC024 17/13 A3007 RMK AO2 SLP183 T01720128
KDTN 201826Z 18007KT 10SM OVC015 17/13 A3009 RMK AO2 T01670128
KDTN 201753Z 17008KT 10SM OVC011 16/12 A3010 RMK AO2 SLP193 60000 T01610122 10161 20083 58008
KDTN 201653Z 15007KT 10SM OVC010 14/11 A3013 RMK AO2 SLP202 T01390106
KDTN 201621Z 15009KT 10SM OVC010 13/09 A3013 RMK AO2 T01330089
KDTN 201553Z 16006KT 10SM OVC009 12/08 A3013 RMK AO2 SLP203 T01170083
KDTN 201507Z 15005KT 10SM OVC009 09/06 A3013 RMK AO2 T00940061
KDTN 201453Z 16006KT 10SM OVC010 09/06 A3013 RMK AO2 RAB24E33 SLP202 P0000 60000 T00940056 53005
KDTN 201353Z 15005KT 10SM OVC011 09/03 A3012 RMK AO2 SLP200 T00890033
KDTN 201253Z 13005KT 10SM OVC011 08/02 A3012 RMK AO2 SLP199 T00830017
KDTN 201153Z AUTO 15004KT 10SM OVC011 09/02 A3011 RMK AO2 SLP197 T00890017 10089 20078 55005
KDTN 201053Z AUTO 14006KT 10SM OVC013 08/01 A3011 RMK AO2 SLP197 T00830011
KDTN 200953Z AUTO 14006KT 10SM OVC012 08/01 A3012 RMK AO2 SLP197 T00830006
KDTN 200910Z AUTO 15005KT 10SM BKN013 OVC029 08/00 A3013 RMK AO2 T00830000
KDTN 200853Z AUTO 15005KT 10SM BKN017 OVC031 08/00 A3013 RMK AO2 SLP202 T00830000 56010
KDTN 200803Z AUTO 13006KT 10SM BKN020 OVC031 08/M01 A3014 RMK AO2 T00831006
KDTN 200753Z AUTO 13005KT 10SM SCT020 BKN030 OVC090 08/M01 A3014 RMK AO2 SLP204 T00831006
KDTN 200746Z AUTO 14005KT 10SM FEW020 SCT027 BKN032 08/M01 A3014 RMK AO2 T00831006
KDTN 200653Z AUTO 15007KT 130V190 10SM OVC025 09/M02 A3015 RMK AO2 SLP209 T00891017
KDTN 200553Z AUTO 14005KT 10SM OVC015 09/M03 A3016 RMK AO2 SLP213 T00891028 10100 20067 401280028 58001
KDTN 200453Z AUTO 14007KT 10SM BKN022 OVC060 08/M02 A3017 RMK AO2 SLP217 T00831022
KDTN 200414Z AUTO 14006KT 10SM BKN024 08/M02 A3017 RMK AO2 T00781022
KDTN 200353Z AUTO 13004KT 10SM CLR 07/M03 A3017 RMK AO2 SLP216 T00671028
KDTN 200253Z 14007KT 10SM OVC065 09/M03 A3016 RMK AO2 SLP213 T00891028 53003
KDTN 200153Z 15007KT 10SM OVC050 10/M03 A3016 RMK AO2 SLP213 T01001028
KDTN 200105Z 13010KT 10SM OVC050 10/M03 A3014 RMK AO2 T01001028
KDTN 200053Z 14011KT 2 1/2SM HZ OVC055 10/M03 A3015 RMK AO2 SLP208 T01001028
KDTN 192353Z 14009KT 10SM BKN048 OVC055 10/M03 A3015 RMK AO2 SLP210 T01001033 10128 20089 55008
KDTN 192253Z 17011KT 10SM OVC038 12/M03 A3015 RMK AO2 SLP210 T01171033
KDTN 192153Z 17010KT 10SM SCT034 OVC050 13/M06 A3016 RMK AO2 SLP212 T01281061
KDTN 192053Z 17007KT 10SM SCT039 OVC050 12/M07 A3018 RMK AO2 SLP218 T01221067 56033
KDTN 191953Z 15008KT 10SM BKN039 OVC048 12/M06 A3021 RMK AO2 SLP228 T01171061
KDTN 191853Z 18007KT 10SM BKN047 OVC055 11/M07 A3023 RMK AO2 SLP238 T01061067
KDTN 191753Z 18009KT 10SM FEW034 OVC049 09/M06 A3027 RMK AO2 SLP251 T00941061 10094 20039 58012
KDTN 191653Z 19007KT 10SM BKN033 OVC050 07/M06 A3031 RMK AO2 SLP264 T00721056
KDTN 191553Z 17007KT 10SM OVC037 06/M06 A3032 RMK AO2 SLP267 T00611056